createdAt,value
2018-07-12T00:01:22.296Z,97.40
2018-07-12T00:03:49.144Z,97.60
2018-07-12T00:06:15.626Z,96.70
2018-07-12T00:08:42.522Z,96.40
2018-07-12T00:11:09.000Z,97.40
2018-07-12T00:13:35.803Z,98.20
2018-07-12T00:16:02.639Z,97.80
2018-07-12T00:18:29.503Z,97.80
2018-07-12T00:20:55.957Z,98.40
2018-07-12T00:23:22.408Z,97.70
2018-07-12T00:25:49.752Z,98.20
2018-07-12T00:28:16.196Z,98.60
2018-07-12T00:30:43.344Z,99.90
2018-07-12T00:38:04.280Z,99.40
2018-07-12T00:40:30.752Z,99.10
2018-07-12T00:42:57.217Z,99.00
2018-07-12T00:45:24.240Z,98.50
2018-07-12T00:47:51.072Z,98.10
2018-07-12T00:50:18.045Z,98.40
2018-07-12T00:52:44.608Z,98.90
2018-07-12T00:55:11.072Z,98.70
2018-07-12T00:57:37.560Z,98.60
2018-07-12T01:00:04.577Z,98.50
2018-07-12T01:02:31.042Z,98.70
2018-07-12T01:04:58.496Z,98.50
2018-07-12T01:07:24.955Z,98.30
2018-07-12T01:09:51.796Z,98.20
2018-07-12T01:12:18.740Z,98.10
2018-07-12T01:14:45.553Z,98.70
2018-07-12T01:17:12.025Z,99.00
2018-07-12T01:19:38.865Z,98.60
2018-07-12T01:22:05.931Z,98.50
2018-07-12T01:24:32.375Z,98.20
2018-07-12T01:26:58.844Z,97.60
2018-07-12T01:29:25.350Z,98.70
2018-07-12T01:31:51.811Z,98.80
2018-07-12T01:34:18.628Z,98.80
2018-07-12T01:36:45.091Z,99.20
2018-07-12T01:39:11.577Z,99.30
2018-07-12T01:41:38.043Z,99.90
2018-07-12T01:46:32.112Z,99.90
2018-07-12T01:48:58.935Z,99.30
2018-07-12T01:51:25.390Z,98.80
2018-07-12T01:53:51.860Z,98.50
2018-07-12T01:56:18.334Z,98.20
2018-07-12T01:58:44.792Z,98.30
2018-07-12T02:01:11.352Z,97.90
2018-07-12T02:03:38.099Z,98.30
2018-07-12T02:06:04.635Z,97.80
2018-07-12T02:08:31.623Z,98.00
2018-07-12T02:10:58.879Z,99.30
2018-07-12T02:13:25.330Z,99.30
2018-07-12T02:15:52.280Z,99.10
2018-07-12T02:18:19.146Z,98.50
2018-07-12T02:20:45.967Z,99.00
2018-07-12T02:23:12.417Z,99.00
2018-07-12T02:25:38.867Z,98.10
2018-07-12T02:28:05.367Z,99.00
2018-07-12T02:30:31.865Z,98.30
2018-07-12T02:32:59.091Z,98.50
2018-07-12T02:37:52.951Z,98.20
2018-07-12T02:40:19.401Z,99.00
2018-07-12T02:42:46.793Z,99.20
2018-07-12T02:45:13.931Z,99.70
2018-07-12T02:47:40.388Z,99.90
2018-07-12T02:50:07.952Z,99.30
2018-07-12T02:52:34.680Z,99.20
2018-07-12T02:55:01.131Z,99.30
2018-07-12T02:57:27.588Z,99.00
2018-07-12T02:59:54.089Z,97.70
2018-07-12T03:02:20.552Z,98.00
2018-07-12T03:04:47.612Z,98.00
2018-07-12T03:07:15.888Z,98.70
2018-07-12T03:09:42.848Z,97.90
2018-07-12T03:12:09.296Z,98.30
2018-07-12T03:14:37.960Z,99.50
2018-07-12T03:17:05.004Z,99.90
2018-07-12T03:19:31.843Z,99.50
2018-07-12T03:21:58.305Z,99.70
2018-07-12T03:24:24.755Z,99.10
2018-07-12T03:26:51.259Z,99.00
2018-07-12T03:29:17.715Z,98.80
2018-07-12T03:31:45.592Z,98.30
2018-07-12T03:34:12.443Z,99.30
2018-07-12T03:36:38.888Z,98.10
2018-07-12T03:39:05.708Z,98.20
2018-07-12T03:41:32.164Z,98.70
2018-07-12T03:43:58.996Z,98.50
2018-07-12T03:46:25.452Z,98.40
2018-07-12T03:48:51.911Z,98.30
2018-07-12T03:51:18.404Z,99.00
2018-07-12T03:53:44.851Z,98.40
2018-07-12T03:56:11.395Z,98.30
2018-07-12T03:58:38.370Z,97.40
2018-07-12T04:03:32.424Z,98.20
2018-07-12T04:05:59.208Z,98.40
2018-07-12T04:08:26.132Z,98.30
2018-07-12T04:10:52.669Z,97.80
2018-07-12T04:13:19.112Z,97.90
2018-07-12T04:15:45.864Z,98.80
2018-07-12T04:18:13.152Z,98.90
2018-07-12T04:20:39.891Z,98.50
2018-07-12T04:23:06.760Z,98.60
2018-07-12T04:25:33.888Z,98.80
2018-07-12T04:28:00.750Z,98.70
2018-07-12T04:30:27.219Z,98.90
2018-07-12T04:32:54.153Z,98.60
2018-07-12T04:35:20.616Z,98.20
2018-07-12T04:37:47.785Z,98.50
2018-07-12T04:40:15.005Z,98.40
2018-07-12T04:42:41.451Z,98.20
2018-07-12T04:45:08.684Z,98.10
2018-07-12T04:47:35.144Z,97.80
2018-07-12T04:50:01.605Z,97.50
2018-07-12T04:52:28.112Z,96.30
2018-07-12T04:54:54.563Z,96.00
2018-07-12T04:57:21.408Z,95.20
2018-07-12T04:59:47.851Z,94.30
2018-07-12T05:02:14.305Z,94.10
2018-07-12T05:04:41.100Z,93.90
2018-07-12T05:07:07.552Z,93.50
2018-07-12T05:09:34.592Z,93.40
2018-07-12T05:12:01.076Z,93.30
2018-07-12T05:14:28.628Z,92.70
2018-07-12T05:16:55.453Z,92.70
2018-07-12T05:19:22.204Z,92.10
2018-07-12T05:21:48.679Z,91.90
2018-07-12T05:24:15.128Z,90.50
2018-07-12T05:26:41.628Z,90.30
2018-07-12T05:29:08.090Z,89.00
2018-07-12T05:31:34.651Z,88.90
2018-07-12T05:34:02.067Z,88.20
2018-07-12T05:37:04.055Z,88.80
2018-07-12T05:39:32.240Z,88.70
2018-07-12T05:41:59.759Z,88.70
2018-07-12T05:44:27.632Z,88.70
2018-07-12T05:46:55.136Z,88.20
2018-07-12T05:49:23.062Z,87.90
2018-07-12T05:51:51.283Z,87.50
2018-07-12T05:54:19.688Z,87.00
2018-07-12T05:56:47.465Z,86.60
2018-07-12T05:59:15.323Z,86.90
2018-07-12T06:02:48.023Z,85.60
2018-07-12T06:07:44.988Z,85.00
2018-07-12T06:10:12.863Z,84.50
2018-07-12T06:12:40.368Z,84.90
2018-07-12T06:15:09.016Z,83.90
2018-07-12T06:17:36.546Z,85.20
2018-07-12T06:20:07.273Z,84.50
2018-07-12T06:22:34.793Z,84.80
2018-07-12T06:25:03.308Z,83.20
2018-07-12T06:27:30.812Z,84.40
2018-07-12T06:29:58.860Z,81.60
2018-07-12T06:32:26.680Z,83.60
2018-07-12T06:34:54.848Z,81.50
2018-07-12T06:37:22.728Z,83.40
2018-07-12T06:39:50.224Z,83.50
2018-07-12T06:42:18.251Z,83.20
2018-07-12T06:44:46.168Z,82.70
2018-07-12T06:47:13.679Z,81.90
2018-07-12T06:49:41.664Z,81.50
2018-07-12T06:52:09.353Z,82.00
2018-07-12T06:54:36.864Z,80.10
2018-07-12T06:57:04.411Z,80.70
2018-07-12T06:59:32.561Z,78.90
2018-07-12T07:02:01.259Z,78.30
2018-07-12T07:04:29.436Z,79.00
2018-07-12T07:06:56.968Z,77.60
2018-07-12T07:09:24.872Z,77.60
2018-07-12T07:11:52.590Z,77.60
2018-07-12T07:14:20.112Z,77.70
2018-07-12T07:16:47.632Z,76.80
2018-07-12T07:19:15.640Z,74.50
2018-07-12T07:21:43.180Z,75.50
2018-07-12T07:24:10.681Z,75.60
2018-07-12T07:26:38.213Z,74.30
2018-07-12T07:29:07.064Z,75.70
2018-07-12T07:31:34.843Z,73.70
2018-07-12T07:34:02.785Z,74.00
2018-07-12T07:36:30.818Z,74.40
2018-07-12T07:38:58.358Z,73.90
2018-07-12T07:41:26.175Z,74.60
2018-07-12T07:43:54.305Z,74.00
2018-07-12T07:46:22.535Z,72.10
2018-07-12T07:48:50.079Z,73.50
2018-07-12T07:51:17.620Z,71.60
2018-07-12T07:53:45.160Z,71.30
2018-07-12T07:56:13.074Z,70.80
2018-07-12T07:58:41.068Z,72.20
2018-07-12T08:01:08.596Z,71.40
2018-07-12T08:03:36.126Z,70.10
2018-07-12T08:06:05.629Z,71.00
2018-07-12T08:08:33.489Z,67.70
2018-07-12T08:11:01.018Z,69.80
2018-07-12T08:13:28.516Z,69.90
2018-07-12T08:15:56.467Z,69.90
2018-07-12T08:18:24.361Z,68.90
2018-07-12T08:20:51.911Z,68.00
2018-07-12T08:23:19.436Z,68.50
2018-07-12T08:25:47.676Z,68.00
2018-07-12T08:28:28.505Z,64.40
2018-07-12T08:30:56.204Z,61.10
2018-07-12T08:33:24.798Z,63.30
2018-07-12T08:35:52.725Z,63.30
2018-07-12T08:38:20.451Z,61.90
2018-07-12T08:40:48.120Z,63.80
2018-07-12T08:43:17.166Z,62.40
2018-07-12T08:45:44.959Z,65.70
2018-07-12T08:48:12.475Z,63.70
2018-07-12T08:50:40.019Z,62.10
2018-07-12T08:53:08.648Z,59.50
2018-07-12T08:55:36.217Z,59.90
2018-07-12T08:58:03.804Z,58.80
2018-07-12T09:00:31.332Z,57.60
2018-07-12T09:05:28.012Z,58.40
2018-07-12T09:07:56.144Z,60.60
2018-07-12T09:10:23.720Z,58.20
2018-07-12T09:12:51.275Z,58.40
2018-07-12T09:15:19.695Z,57.90
2018-07-12T09:17:47.782Z,58.80
2018-07-12T09:20:16.347Z,58.00
2018-07-12T09:22:44.517Z,58.10
2018-07-12T09:27:39.926Z,55.60
2018-07-12T09:30:07.895Z,56.10
2018-07-12T09:32:36.240Z,54.40
2018-07-12T09:35:03.867Z,53.80
2018-07-12T09:37:32.541Z,55.50
2018-07-12T09:40:00.114Z,55.00
2018-07-12T09:42:28.079Z,53.50
2018-07-12T09:44:56.148Z,54.90
2018-07-12T09:47:23.713Z,54.70
2018-07-12T09:49:51.281Z,53.30
2018-07-12T09:52:25.672Z,54.00
2018-07-12T09:54:53.353Z,53.50
2018-07-12T09:57:32.396Z,55.00
2018-07-12T10:00:00.515Z,55.10
2018-07-12T10:02:34.132Z,53.50
2018-07-12T10:05:02.412Z,53.10
2018-07-12T10:07:31.613Z,53.20
2018-07-12T10:09:59.160Z,52.70
2018-07-12T10:15:01.177Z,52.60
2018-07-12T10:17:34.452Z,54.70
2018-07-12T10:20:03.701Z,51.90
2018-07-12T10:22:31.763Z,52.10
2018-07-12T10:24:59.274Z,52.60
2018-07-12T10:27:27.195Z,52.70
2018-07-12T10:29:54.846Z,53.20
2018-07-12T10:32:22.288Z,53.00
2018-07-12T10:37:18.189Z,50.10
2018-07-12T10:39:45.843Z,50.00
2018-07-12T10:42:14.088Z,50.30
2018-07-12T10:44:42.297Z,51.00
2018-07-12T10:47:09.837Z,49.40
2018-07-12T10:49:37.699Z,49.00
2018-07-12T10:52:05.624Z,49.90
2018-07-12T10:54:33.180Z,50.00
2018-07-12T10:57:00.868Z,49.70
2018-07-12T10:59:29.091Z,47.60
2018-07-12T11:01:56.632Z,48.60
2018-07-12T11:04:24.879Z,47.80
2018-07-12T11:06:52.525Z,47.90
2018-07-12T11:09:20.720Z,46.10
2018-07-12T11:11:48.318Z,47.00
2018-07-12T11:14:16.487Z,45.30
2018-07-12T11:16:44.048Z,46.20
2018-07-12T11:19:12.875Z,47.40
2018-07-12T11:21:40.777Z,46.50
2018-07-12T11:24:08.312Z,46.60
2018-07-12T11:26:36.050Z,46.30
2018-07-12T11:29:03.686Z,47.50
2018-07-12T11:31:31.230Z,47.40
2018-07-12T11:33:59.159Z,46.40
2018-07-12T11:36:26.710Z,46.40
2018-07-12T11:38:54.241Z,46.90
2018-07-12T11:41:22.427Z,47.50
2018-07-12T11:43:50.576Z,46.40
2018-07-12T11:46:18.495Z,47.30
2018-07-12T11:48:46.165Z,46.80
2018-07-12T11:51:13.731Z,47.80
2018-07-12T11:53:41.323Z,47.60
2018-07-12T11:56:09.317Z,46.50
2018-07-12T11:58:36.817Z,46.70
2018-07-12T12:01:04.339Z,45.20
2018-07-12T12:03:32.899Z,45.20
2018-07-12T12:06:01.914Z,45.90
2018-07-12T12:08:29.896Z,46.50
2018-07-12T12:10:57.480Z,46.80
2018-07-12T12:13:25.016Z,47.20
2018-07-12T12:15:52.664Z,46.20
2018-07-12T12:18:20.568Z,45.00
2018-07-12T12:20:48.198Z,46.10
2018-07-12T12:23:15.748Z,46.40
2018-07-12T12:25:43.433Z,47.00
2018-07-12T12:28:11.683Z,47.30
2018-07-12T12:30:39.358Z,45.00
2018-07-12T12:33:07.336Z,45.30
2018-07-12T12:35:35.213Z,45.90
2018-07-12T12:38:02.724Z,46.10
2018-07-12T12:40:30.628Z,45.80
2018-07-12T12:42:58.200Z,45.40
2018-07-12T12:45:27.049Z,45.30
2018-07-12T12:47:54.665Z,44.10
2018-07-12T12:50:22.173Z,45.10
2018-07-12T12:52:49.691Z,44.50
2018-07-12T12:55:17.560Z,44.40
2018-07-12T12:57:45.396Z,44.20
2018-07-12T13:02:40.379Z,43.60
2018-07-12T13:05:08.480Z,43.60
2018-07-12T13:07:36.568Z,43.30
2018-07-12T13:10:04.756Z,43.50
2018-07-12T13:12:32.297Z,43.40
2018-07-12T13:15:00.436Z,42.50
2018-07-12T13:17:27.964Z,43.60
2018-07-12T13:19:55.892Z,43.20
2018-07-12T13:22:23.340Z,43.10
2018-07-12T13:24:50.883Z,41.20
2018-07-12T13:27:18.460Z,42.20
2018-07-12T13:29:45.980Z,42.50
2018-07-12T13:32:13.584Z,42.70
2018-07-12T13:34:41.850Z,42.60
2018-07-12T13:37:09.436Z,43.90
2018-07-12T13:39:36.953Z,43.70
2018-07-12T13:42:04.844Z,43.90
2018-07-12T13:44:32.693Z,44.40
2018-07-12T13:47:00.212Z,45.00
2018-07-12T13:49:28.227Z,45.60
2018-07-12T13:51:56.912Z,45.00
2018-07-12T13:54:24.416Z,46.00
2018-07-12T13:56:51.932Z,45.60
2018-07-12T13:59:19.585Z,46.20
2018-07-12T14:01:47.129Z,45.90
2018-07-12T14:04:15.169Z,44.30
2018-07-12T14:06:42.706Z,40.40
2018-07-12T14:09:12.745Z,40.80
2018-07-12T14:14:09.409Z,39.50
2018-07-12T14:23:59.744Z,37.90
2018-07-12T14:26:27.584Z,38.10
2018-07-12T14:28:56.128Z,39.50
2018-07-12T14:31:23.661Z,38.70
2018-07-12T14:33:51.555Z,36.90
2018-07-12T14:38:46.907Z,37.50
2018-07-12T14:41:14.840Z,37.70
2018-07-12T14:43:42.736Z,36.40
2018-07-12T14:46:10.889Z,36.50
2018-07-12T14:48:38.972Z,34.60
2018-07-12T14:51:06.937Z,34.50
2018-07-12T14:53:34.460Z,35.40
2018-07-12T14:56:01.968Z,33.10
2018-07-12T14:58:29.491Z,35.50
2018-07-12T15:00:57.002Z,33.00
2018-07-12T15:03:26.013Z,33.50
2018-07-12T15:05:54.107Z,32.00
2018-07-12T15:08:21.983Z,33.50
2018-07-12T15:10:49.875Z,31.20
2018-07-12T15:13:17.408Z,30.80
2018-07-12T15:15:45.416Z,31.70
2018-07-12T15:18:13.281Z,32.70
2018-07-12T15:20:40.863Z,32.00
2018-07-12T15:23:08.700Z,34.10
2018-07-12T15:25:36.880Z,32.00
2018-07-12T15:28:04.604Z,32.00
2018-07-12T15:30:31.980Z,31.70
2018-07-12T15:33:00.165Z,32.30
2018-07-12T15:35:27.696Z,32.40
2018-07-12T15:37:56.041Z,32.20
2018-07-12T15:40:23.552Z,32.40
2018-07-12T15:42:51.578Z,31.80
2018-07-12T15:45:20.371Z,31.60
2018-07-12T15:47:48.918Z,30.40
2018-07-12T15:52:47.377Z,31.60
2018-07-12T15:55:14.864Z,31.90
2018-07-12T15:57:42.369Z,31.80
2018-07-12T16:00:10.011Z,30.50
2018-07-12T16:02:37.784Z,30.60
2018-07-12T16:05:05.800Z,31.40
2018-07-12T16:07:34.281Z,30.60
2018-07-12T16:10:02.740Z,31.40
2018-07-12T16:12:30.251Z,32.70
2018-07-12T16:14:57.763Z,33.30
2018-07-12T16:17:26.730Z,34.40
2018-07-12T16:19:55.192Z,35.70
2018-07-12T16:22:22.805Z,35.50
2018-07-12T16:24:50.399Z,36.80
2018-07-12T16:27:17.984Z,37.10
2018-07-12T16:29:46.106Z,37.20
2018-07-12T16:32:13.690Z,38.30
2018-07-12T16:34:42.203Z,38.80
2018-07-12T16:37:10.346Z,39.50
2018-07-12T16:39:38.119Z,40.80
2018-07-12T16:44:34.503Z,43.40
2018-07-12T16:47:02.678Z,44.60
2018-07-12T16:49:30.547Z,44.60
2018-07-12T16:51:58.355Z,46.70
2018-07-12T16:54:26.188Z,44.70
2018-07-12T16:56:53.982Z,45.30
2018-07-12T16:59:21.932Z,46.20
2018-07-12T17:01:49.806Z,45.90
2018-07-12T17:04:18.888Z,44.40
2018-07-12T17:06:47.262Z,43.80
2018-07-12T17:11:43.196Z,43.70
2018-07-12T17:14:11.047Z,44.10
2018-07-12T17:16:39.075Z,43.00
2018-07-12T17:19:07.591Z,43.60
2018-07-12T17:21:35.396Z,42.60
2018-07-12T17:24:03.316Z,42.50
2018-07-12T17:26:32.106Z,43.80
2018-07-12T17:29:00.041Z,42.50
2018-07-12T17:33:57.241Z,43.40
2018-07-12T17:36:25.544Z,44.30
2018-07-12T17:38:53.696Z,44.30
2018-07-12T17:41:21.588Z,46.50
2018-07-12T17:43:49.971Z,46.50
2018-07-12T17:46:17.787Z,48.60
2018-07-12T17:48:45.584Z,48.00
2018-07-12T17:51:13.479Z,48.60
2018-07-12T17:53:41.767Z,50.30
2018-07-12T17:56:09.992Z,50.20
2018-07-12T17:58:37.955Z,51.70
2018-07-12T18:01:07.054Z,52.30
2018-07-12T18:03:35.398Z,53.60
2018-07-12T18:06:03.791Z,53.60
2018-07-12T18:08:32.936Z,54.60
2018-07-12T18:11:00.646Z,54.90
2018-07-12T18:13:28.481Z,54.80
2018-07-12T18:15:56.944Z,57.10
2018-07-12T18:18:25.840Z,57.30
2018-07-12T18:20:53.668Z,55.90
2018-07-12T18:23:21.394Z,57.20
2018-07-12T18:25:49.659Z,57.30
2018-07-12T18:30:46.023Z,57.00
2018-07-12T18:33:14.416Z,57.40
2018-07-12T18:35:42.951Z,57.50
2018-07-12T18:38:12.226Z,57.70
2018-07-12T18:40:41.633Z,57.50
2018-07-12T18:43:09.687Z,57.40
2018-07-12T18:45:38.129Z,57.30
2018-07-12T18:48:06.034Z,57.80
2018-07-12T18:50:34.114Z,59.40
2018-07-12T18:55:32.114Z,59.30
2018-07-12T18:58:00.901Z,59.30
2018-07-12T19:02:57.415Z,59.80
2018-07-12T19:05:27.145Z,61.40
2018-07-12T19:07:56.120Z,61.60
2018-07-12T19:10:24.095Z,65.10
2018-07-12T19:12:52.406Z,63.30
2018-07-12T19:15:20.602Z,64.40
2018-07-12T19:17:49.630Z,64.40
2018-07-12T19:20:17.804Z,65.40
2018-07-12T19:22:46.008Z,65.50
2018-07-12T19:25:14.041Z,67.70
2018-07-12T19:27:42.564Z,66.60
2018-07-12T19:30:10.398Z,67.60
2018-07-12T19:35:06.357Z,69.70
2018-07-12T19:37:34.258Z,67.50
2018-07-12T19:40:02.273Z,68.50
2018-07-12T19:42:29.787Z,67.70
2018-07-12T19:44:57.776Z,70.10
2018-07-12T19:47:25.660Z,71.70
2018-07-12T19:49:53.177Z,71.10
2018-07-12T19:52:20.748Z,70.50
2018-07-12T19:54:48.753Z,76.20
2018-07-12T19:57:16.281Z,70.90
2018-07-12T19:59:44.315Z,71.80
2018-07-12T20:02:12.425Z,71.30
2018-07-12T20:04:40.510Z,71.20
2018-07-12T20:07:08.091Z,70.50
2018-07-12T20:09:36.151Z,71.00
2018-07-12T20:12:04.052Z,70.80
2018-07-12T20:14:31.716Z,73.30
2018-07-12T20:16:59.259Z,71.40
2018-07-12T20:19:27.174Z,72.40
2018-07-12T20:21:54.733Z,72.80
2018-07-12T20:24:23.099Z,73.10
2018-07-12T20:26:50.609Z,73.30
2018-07-12T20:29:18.603Z,73.80
2018-07-12T20:31:46.304Z,73.40
2018-07-12T20:34:14.563Z,73.50
2018-07-12T20:36:42.549Z,74.10
2018-07-12T20:39:10.067Z,74.00
2018-07-12T20:41:38.184Z,77.40
2018-07-12T20:44:06.081Z,78.50
2018-07-12T20:46:33.998Z,76.50
2018-07-12T20:49:01.528Z,77.70
2018-07-12T20:51:29.693Z,75.00
2018-07-12T20:53:57.227Z,75.80
2018-07-12T20:56:26.260Z,75.20
2018-07-12T20:58:53.858Z,75.90
2018-07-12T21:01:21.952Z,76.20
2018-07-12T21:03:49.921Z,76.90
2018-07-12T21:09:17.180Z,77.10
2018-07-12T21:11:44.827Z,77.50
2018-07-12T21:14:12.401Z,77.70
2018-07-12T21:16:40.919Z,79.60
2018-07-12T21:19:08.812Z,79.10
2018-07-12T21:21:37.069Z,80.00
2018-07-12T21:24:05.418Z,79.00
2018-07-12T21:26:32.935Z,78.40
2018-07-12T21:29:00.464Z,79.50
2018-07-12T21:31:28.041Z,79.90
2018-07-12T21:33:56.293Z,79.40
2018-07-12T21:36:24.298Z,79.70
2018-07-12T21:38:51.830Z,80.40
2018-07-12T21:41:19.336Z,80.20
2018-07-12T21:43:47.497Z,80.50
2018-07-12T21:46:15.120Z,80.70
2018-07-12T21:48:42.651Z,80.80
2018-07-12T21:51:10.201Z,81.40
2018-07-12T21:53:38.571Z,83.00
2018-07-12T21:58:33.512Z,81.60
2018-07-12T22:01:01.688Z,84.50
2018-07-12T22:03:29.888Z,85.30
2018-07-12T22:05:57.723Z,84.30
2018-07-12T22:08:27.860Z,83.20
2018-07-12T22:10:56.976Z,84.20
2018-07-12T22:13:25.396Z,83.60
2018-07-12T22:15:52.984Z,84.10
2018-07-12T22:18:21.184Z,82.20
2018-07-12T22:20:48.951Z,83.10
2018-07-12T22:23:16.472Z,82.60
2018-07-12T22:25:43.987Z,82.60
2018-07-12T22:28:11.535Z,83.50
2018-07-12T22:30:39.262Z,83.30
2018-07-12T22:33:07.275Z,82.90
2018-07-12T22:35:35.499Z,82.60
2018-07-12T22:38:03.683Z,84.60
2018-07-12T22:40:31.939Z,86.90
2018-07-12T22:42:59.888Z,85.40
2018-07-12T22:45:27.655Z,85.30
2018-07-12T22:47:55.977Z,87.70
2018-07-12T22:50:23.763Z,88.90
2018-07-12T22:52:51.794Z,86.10
2018-07-12T22:55:19.299Z,85.50
2018-07-12T22:57:46.815Z,87.10
2018-07-12T23:00:14.472Z,85.10
2018-07-12T23:02:43.691Z,85.50
2018-07-12T23:05:11.615Z,87.80
2018-07-12T23:07:39.683Z,85.30
2018-07-12T23:10:07.262Z,85.10
2018-07-12T23:12:34.762Z,86.90
2018-07-12T23:15:02.331Z,89.00
2018-07-12T23:17:30.803Z,89.20
2018-07-12T23:19:58.704Z,87.20
2018-07-12T23:22:26.218Z,84.50
2018-07-12T23:24:53.779Z,84.60
2018-07-12T23:27:21.342Z,85.00
2018-07-12T23:29:49.681Z,86.00
2018-07-12T23:32:17.912Z,85.20
2018-07-12T23:34:46.213Z,86.60
2018-07-12T23:39:41.448Z,88.20
2018-07-12T23:44:36.799Z,87.60
2018-07-12T23:47:04.624Z,86.40
2018-07-12T23:49:32.627Z,86.60
2018-07-12T23:52:00.123Z,88.10
2018-07-12T23:54:27.655Z,87.90
2018-07-12T23:56:55.193Z,88.10
2018-07-12T23:59:22.697Z,87.70
